sensor_id;sensor_type;location;lat;lon;timestamp;P1;durP1;ratioP1;P2;durP2;ratioP2
5221;SDS011;2630;52.036;8.514;2023-08-17T00:00:14;83.13;;;6.67;;
5221;SDS011;2630;52.036;8.514;2023-08-17T00:02:41;73.83;;;5.53;;
5221;SDS011;2630;52.036;8.514;2023-08-17T00:05:07;72.67;;;5.60;;
5221;SDS011;2630;52.036;8.514;2023-08-17T00:07:33;80.17;;;6.00;;
5221;SDS011;2630;52.036;8.514;2023-08-17T00:09:58;76.03;;;5.70;;
5221;SDS011;2630;52.036;8.514;2023-08-17T00:12:24;73.67;;;4.50;;
5221;SDS011;2630;52.036;8.514;2023-08-17T00:14:50;73.87;;;5.70;;
5221;SDS011;2630;52.036;8.514;2023-08-17T00:17:16;72.60;;;5.10;;
5221;SDS011;2630;52.036;8.514;2023-08-17T00:19:42;72.67;;;5.13;;
5221;SDS011;2630;52.036;8.514;2023-08-17T00:22:07;75.97;;;5.47;;
5221;SDS011;2630;52.036;8.514;2023-08-17T00:24:33;72.80;;;5.27;;
5221;SDS011;2630;52.036;8.514;2023-08-17T00:26:58;75.70;;;5.43;;
5221;SDS011;2630;52.036;8.514;2023-08-17T00:29:24;86.70;;;6.23;;
5221;SDS011;2630;52.036;8.514;2023-08-17T00:31:50;72.80;;;5.53;;
5221;SDS011;2630;52.036;8.514;2023-08-17T00:34:16;72.77;;;5.63;;
5221;SDS011;2630;52.036;8.514;2023-08-17T00:36:41;75.67;;;5.53;;
5221;SDS011;2630;52.036;8.514;2023-08-17T00:39:07;78.53;;;6.70;;
5221;SDS011;2630;52.036;8.514;2023-08-17T00:41:33;72.80;;;5.47;;
5221;SDS011;2630;52.036;8.514;2023-08-17T00:43:59;72.97;;;5.53;;
5221;SDS011;2630;52.036;8.514;2023-08-17T00:46:25;78.70;;;5.87;;
5221;SDS011;2630;52.036;8.514;2023-08-17T00:48:51;72.90;;;5.43;;
5221;SDS011;2630;52.036;8.514;2023-08-17T00:51:19;75.77;;;5.70;;
5221;SDS011;2630;52.036;8.514;2023-08-17T00:53:48;73.03;;;5.63;;
5221;SDS011;2630;52.036;8.514;2023-08-17T00:56:15;72.80;;;5.30;;
5221;SDS011;2630;52.036;8.514;2023-08-17T00:58:41;72.97;;;5.53;;
5221;SDS011;2630;52.036;8.514;2023-08-17T01:01:07;73.97;;;5.90;;
5221;SDS011;2630;52.036;8.514;2023-08-17T01:03:34;90.50;;;7.40;;
5221;SDS011;2630;52.036;8.514;2023-08-17T01:05:59;78.70;;;5.97;;
5221;SDS011;2630;52.036;8.514;2023-08-17T01:08:27;76.27;;;5.90;;
5221;SDS011;2630;52.036;8.514;2023-08-17T01:13:37;74.17;;;5.57;;
5221;SDS011;2630;52.036;8.514;2023-08-17T01:16:14;72.97;;;5.77;;
5221;SDS011;2630;52.036;8.514;2023-08-17T01:18:45;73.47;;;5.50;;
5221;SDS011;2630;52.036;8.514;2023-08-17T01:21:13;74.53;;;5.53;;
5221;SDS011;2630;52.036;8.514;2023-08-17T01:23:41;72.77;;;5.50;;
5221;SDS011;2630;52.036;8.514;2023-08-17T01:26:09;84.20;;;6.50;;
5221;SDS011;2630;52.036;8.514;2023-08-17T01:28:34;88.63;;;6.30;;
5221;SDS011;2630;52.036;8.514;2023-08-17T01:33:34;72.90;;;5.53;;
5221;SDS011;2630;52.036;8.514;2023-08-17T01:36:16;72.80;;;5.53;;
5221;SDS011;2630;52.036;8.514;2023-08-17T01:38:57;73.20;;;5.87;;
5221;SDS011;2630;52.036;8.514;2023-08-17T01:41:25;75.90;;;5.07;;
5221;SDS011;2630;52.036;8.514;2023-08-17T01:43:51;89.50;;;6.47;;
5221;SDS011;2630;52.036;8.514;2023-08-17T01:46:19;77.17;;;5.70;;
5221;SDS011;2630;52.036;8.514;2023-08-17T01:48:45;73.27;;;5.67;;
5221;SDS011;2630;52.036;8.514;2023-08-17T01:51:11;72.77;;;5.47;;
5221;SDS011;2630;52.036;8.514;2023-08-17T01:53:40;73.10;;;5.73;;
5221;SDS011;2630;52.036;8.514;2023-08-17T01:56:06;73.93;;;5.47;;
5221;SDS011;2630;52.036;8.514;2023-08-17T01:58:32;73.10;;;5.47;;
5221;SDS011;2630;52.036;8.514;2023-08-17T02:00:58;77.23;;;6.37;;
5221;SDS011;2630;52.036;8.514;2023-08-17T02:03:23;73.07;;;5.60;;
5221;SDS011;2630;52.036;8.514;2023-08-17T02:05:49;72.97;;;5.27;;
5221;SDS011;2630;52.036;8.514;2023-08-17T02:08:14;110.47;;;8.73;;
5221;SDS011;2630;52.036;8.514;2023-08-17T02:10:40;72.97;;;5.50;;
5221;SDS011;2630;52.036;8.514;2023-08-17T02:13:06;73.07;;;5.40;;
5221;SDS011;2630;52.036;8.514;2023-08-17T02:15:31;76.00;;;5.53;;
5221;SDS011;2630;52.036;8.514;2023-08-17T02:17:59;79.03;;;5.40;;
5221;SDS011;2630;52.036;8.514;2023-08-17T02:20:25;87.33;;;6.73;;
5221;SDS011;2630;52.036;8.514;2023-08-17T02:22:51;72.97;;;5.67;;
5221;SDS011;2630;52.036;8.514;2023-08-17T02:25:16;87.63;;;6.70;;
5221;SDS011;2630;52.036;8.514;2023-08-17T02:27:42;73.10;;;5.60;;
5221;SDS011;2630;52.036;8.514;2023-08-17T02:30:08;73.27;;;5.27;;
5221;SDS011;2630;52.036;8.514;2023-08-17T02:32:34;72.70;;;5.07;;
5221;SDS011;2630;52.036;8.514;2023-08-17T02:34:59;72.80;;;5.47;;
5221;SDS011;2630;52.036;8.514;2023-08-17T02:37:25;75.93;;;5.33;;
5221;SDS011;2630;52.036;8.514;2023-08-17T02:39:51;77.13;;;5.50;;
5221;SDS011;2630;52.036;8.514;2023-08-17T02:42:16;73.70;;;5.60;;
5221;SDS011;2630;52.036;8.514;2023-08-17T02:44:42;73.23;;;5.23;;
5221;SDS011;2630;52.036;8.514;2023-08-17T02:47:07;72.87;;;5.27;;
5221;SDS011;2630;52.036;8.514;2023-08-17T02:49:33;92.20;;;7.20;;
5221;SDS011;2630;52.036;8.514;2023-08-17T02:51:59;72.90;;;5.57;;
5221;SDS011;2630;52.036;8.514;2023-08-17T02:54:24;72.97;;;5.10;;
5221;SDS011;2630;52.036;8.514;2023-08-17T02:56:50;72.90;;;5.50;;
5221;SDS011;2630;52.036;8.514;2023-08-17T02:59:16;90.53;;;6.90;;
5221;SDS011;2630;52.036;8.514;2023-08-17T03:01:41;74.70;;;5.73;;
5221;SDS011;2630;52.036;8.514;2023-08-17T03:04:09;72.80;;;5.53;;
5221;SDS011;2630;52.036;8.514;2023-08-17T03:06:35;74.70;;;5.60;;
5221;SDS011;2630;52.036;8.514;2023-08-17T03:09:00;72.87;;;5.50;;
5221;SDS011;2630;52.036;8.514;2023-08-17T03:11:26;76.80;;;5.53;;
5221;SDS011;2630;52.036;8.514;2023-08-17T03:13:51;73.17;;;4.90;;
5221;SDS011;2630;52.036;8.514;2023-08-17T03:16:19;77.20;;;5.90;;
5221;SDS011;2630;52.036;8.514;2023-08-17T03:18:44;72.90;;;5.10;;
5221;SDS011;2630;52.036;8.514;2023-08-17T03:21:10;77.03;;;5.80;;
5221;SDS011;2630;52.036;8.514;2023-08-17T03:23:35;73.10;;;5.17;;
5221;SDS011;2630;52.036;8.514;2023-08-17T03:26:01;79.00;;;6.10;;
5221;SDS011;2630;52.036;8.514;2023-08-17T03:28:27;73.40;;;5.47;;
5221;SDS011;2630;52.036;8.514;2023-08-17T03:30:55;81.23;;;5.33;;
5221;SDS011;2630;52.036;8.514;2023-08-17T03:33:21;81.40;;;5.70;;
5221;SDS011;2630;52.036;8.514;2023-08-17T03:35:47;73.27;;;5.50;;
5221;SDS011;2630;52.036;8.514;2023-08-17T03:38:12;75.30;;;5.60;;
5221;SDS011;2630;52.036;8.514;2023-08-17T03:40:38;73.30;;;5.37;;
5221;SDS011;2630;52.036;8.514;2023-08-17T03:43:04;84.23;;;6.10;;
5221;SDS011;2630;52.036;8.514;2023-08-17T03:45:30;73.20;;;5.47;;
5221;SDS011;2630;52.036;8.514;2023-08-17T03:47:56;72.87;;;5.30;;
5221;SDS011;2630;52.036;8.514;2023-08-17T03:50:21;73.47;;;5.53;;
5221;SDS011;2630;52.036;8.514;2023-08-17T03:52:47;74.63;;;5.47;;
5221;SDS011;2630;52.036;8.514;2023-08-17T03:55:13;73.40;;;5.30;;
5221;SDS011;2630;52.036;8.514;2023-08-17T03:57:38;73.07;;;5.37;;
5221;SDS011;2630;52.036;8.514;2023-08-17T04:00:04;73.40;;;5.57;;
5221;SDS011;2630;52.036;8.514;2023-08-17T04:02:31;73.17;;;5.20;;
5221;SDS011;2630;52.036;8.514;2023-08-17T04:04:57;73.70;;;5.70;;
5221;SDS011;2630;52.036;8.514;2023-08-17T04:07:22;73.37;;;5.60;;
5221;SDS011;2630;52.036;8.514;2023-08-17T04:09:48;73.00;;;5.20;;
5221;SDS011;2630;52.036;8.514;2023-08-17T04:12:14;73.30;;;5.77;;
5221;SDS011;2630;52.036;8.514;2023-08-17T04:14:39;77.30;;;6.90;;
5221;SDS011;2630;52.036;8.514;2023-08-17T04:17:05;73.77;;;5.67;;
5221;SDS011;2630;52.036;8.514;2023-08-17T04:19:31;74.97;;;6.80;;
5221;SDS011;2630;52.036;8.514;2023-08-17T04:21:57;73.27;;;5.47;;
5221;SDS011;2630;52.036;8.514;2023-08-17T04:24:23;73.10;;;5.43;;
5221;SDS011;2630;52.036;8.514;2023-08-17T04:26:49;73.57;;;5.73;;
5221;SDS011;2630;52.036;8.514;2023-08-17T04:29:15;77.97;;;5.90;;
5221;SDS011;2630;52.036;8.514;2023-08-17T04:31:40;73.30;;;5.43;;
5221;SDS011;2630;52.036;8.514;2023-08-17T04:34:06;73.40;;;5.53;;
5221;SDS011;2630;52.036;8.514;2023-08-17T04:36:31;74.80;;;5.70;;
5221;SDS011;2630;52.036;8.514;2023-08-17T04:38:57;73.10;;;4.93;;
5221;SDS011;2630;52.036;8.514;2023-08-17T04:41:23;79.27;;;6.10;;
5221;SDS011;2630;52.036;8.514;2023-08-17T04:43:49;73.20;;;5.60;;
5221;SDS011;2630;52.036;8.514;2023-08-17T04:46:15;86.70;;;6.53;;
5221;SDS011;2630;52.036;8.514;2023-08-17T04:48:40;74.13;;;5.63;;
5221;SDS011;2630;52.036;8.514;2023-08-17T04:51:06;73.17;;;5.57;;
5221;SDS011;2630;52.036;8.514;2023-08-17T04:53:31;73.13;;;5.60;;
5221;SDS011;2630;52.036;8.514;2023-08-17T04:55:58;79.23;;;5.57;;
5221;SDS011;2630;52.036;8.514;2023-08-17T04:58:24;80.03;;;5.97;;
5221;SDS011;2630;52.036;8.514;2023-08-17T05:00:51;93.00;;;7.20;;
5221;SDS011;2630;52.036;8.514;2023-08-17T05:03:16;79.83;;;6.20;;
5221;SDS011;2630;52.036;8.514;2023-08-17T05:05:42;79.60;;;6.30;;
5221;SDS011;2630;52.036;8.514;2023-08-17T05:08:07;73.17;;;5.40;;
5221;SDS011;2630;52.036;8.514;2023-08-17T05:10:34;88.90;;;7.10;;
5221;SDS011;2630;52.036;8.514;2023-08-17T05:12:59;75.33;;;5.57;;
5221;SDS011;2630;52.036;8.514;2023-08-17T05:15:25;73.77;;;5.57;;
5221;SDS011;2630;52.036;8.514;2023-08-17T05:17:50;76.10;;;5.90;;
5221;SDS011;2630;52.036;8.514;2023-08-17T05:20:16;73.37;;;5.90;;
5221;SDS011;2630;52.036;8.514;2023-08-17T05:22:42;73.10;;;5.67;;
5221;SDS011;2630;52.036;8.514;2023-08-17T05:25:08;77.77;;;5.97;;
5221;SDS011;2630;52.036;8.514;2023-08-17T05:27:33;78.30;;;5.97;;
5221;SDS011;2630;52.036;8.514;2023-08-17T05:29:59;75.23;;;6.00;;
5221;SDS011;2630;52.036;8.514;2023-08-17T05:32:24;90.03;;;8.27;;
5221;SDS011;2630;52.036;8.514;2023-08-17T05:34:50;75.87;;;6.10;;
5221;SDS011;2630;52.036;8.514;2023-08-17T05:37:15;73.00;;;5.27;;
5221;SDS011;2630;52.036;8.514;2023-08-17T05:39:41;85.50;;;6.87;;
5221;SDS011;2630;52.036;8.514;2023-08-17T05:42:07;75.83;;;5.37;;
5221;SDS011;2630;52.036;8.514;2023-08-17T05:44:34;74.00;;;5.33;;
5221;SDS011;2630;52.036;8.514;2023-08-17T05:47:00;73.07;;;5.70;;
5221;SDS011;2630;52.036;8.514;2023-08-17T05:49:25;87.30;;;7.47;;
5221;SDS011;2630;52.036;8.514;2023-08-17T05:51:51;72.87;;;5.33;;
5221;SDS011;2630;52.036;8.514;2023-08-17T05:54:17;74.80;;;5.97;;
5221;SDS011;2630;52.036;8.514;2023-08-17T05:56:42;73.00;;;5.30;;
5221;SDS011;2630;52.036;8.514;2023-08-17T05:59:11;73.10;;;5.40;;
5221;SDS011;2630;52.036;8.514;2023-08-17T06:01:37;76.90;;;6.00;;
5221;SDS011;2630;52.036;8.514;2023-08-17T06:04:03;73.10;;;5.43;;
5221;SDS011;2630;52.036;8.514;2023-08-17T06:06:29;96.43;;;7.03;;
5221;SDS011;2630;52.036;8.514;2023-08-17T06:08:55;73.33;;;5.17;;
5221;SDS011;2630;52.036;8.514;2023-08-17T06:11:21;81.40;;;6.20;;
5221;SDS011;2630;52.036;8.514;2023-08-17T06:13:48;82.93;;;6.10;;
5221;SDS011;2630;52.036;8.514;2023-08-17T06:16:13;72.87;;;5.33;;
5221;SDS011;2630;52.036;8.514;2023-08-17T06:18:39;73.80;;;5.47;;
5221;SDS011;2630;52.036;8.514;2023-08-17T06:21:05;112.87;;;6.67;;
5221;SDS011;2630;52.036;8.514;2023-08-17T06:23:31;77.30;;;5.87;;
5221;SDS011;2630;52.036;8.514;2023-08-17T06:25:57;86.90;;;6.20;;
5221;SDS011;2630;52.036;8.514;2023-08-17T06:28:24;77.73;;;6.23;;
5221;SDS011;2630;52.036;8.514;2023-08-17T06:30:56;75.37;;;5.40;;
5221;SDS011;2630;52.036;8.514;2023-08-17T06:33:22;73.50;;;5.10;;
5221;SDS011;2630;52.036;8.514;2023-08-17T06:35:48;73.23;;;5.27;;
5221;SDS011;2630;52.036;8.514;2023-08-17T06:38:14;74.07;;;5.00;;
5221;SDS011;2630;52.036;8.514;2023-08-17T06:40:40;73.10;;;5.80;;
5221;SDS011;2630;52.036;8.514;2023-08-17T06:43:06;72.87;;;5.27;;
5221;SDS011;2630;52.036;8.514;2023-08-17T06:45:32;81.80;;;5.47;;
5221;SDS011;2630;52.036;8.514;2023-08-17T06:47:57;72.60;;;5.03;;
5221;SDS011;2630;52.036;8.514;2023-08-17T06:50:24;73.37;;;5.53;;
5221;SDS011;2630;52.036;8.514;2023-08-17T06:52:51;81.63;;;5.40;;
5221;SDS011;2630;52.036;8.514;2023-08-17T06:55:17;79.00;;;5.53;;
5221;SDS011;2630;52.036;8.514;2023-08-17T06:57:43;72.80;;;5.13;;
5221;SDS011;2630;52.036;8.514;2023-08-17T07:00:10;73.83;;;5.40;;
5221;SDS011;2630;52.036;8.514;2023-08-17T07:02:38;72.80;;;5.33;;
5221;SDS011;2630;52.036;8.514;2023-08-17T07:05:05;81.23;;;6.13;;
5221;SDS011;2630;52.036;8.514;2023-08-17T07:07:30;74.60;;;5.37;;
5221;SDS011;2630;52.036;8.514;2023-08-17T07:09:57;72.47;;;4.97;;
5221;SDS011;2630;52.036;8.514;2023-08-17T07:12:23;78.73;;;7.00;;
5221;SDS011;2630;52.036;8.514;2023-08-17T07:14:49;72.57;;;5.23;;
5221;SDS011;2630;52.036;8.514;2023-08-17T07:17:15;74.80;;;5.53;;
5221;SDS011;2630;52.036;8.514;2023-08-17T07:19:41;75.70;;;5.33;;
5221;SDS011;2630;52.036;8.514;2023-08-17T07:22:07;73.00;;;5.30;;
5221;SDS011;2630;52.036;8.514;2023-08-17T07:24:33;74.50;;;5.30;;
5221;SDS011;2630;52.036;8.514;2023-08-17T07:26:58;72.87;;;5.37;;
5221;SDS011;2630;52.036;8.514;2023-08-17T07:29:24;91.77;;;6.63;;
5221;SDS011;2630;52.036;8.514;2023-08-17T07:31:50;77.67;;;6.43;;
5221;SDS011;2630;52.036;8.514;2023-08-17T07:34:16;72.67;;;5.13;;
5221;SDS011;2630;52.036;8.514;2023-08-17T07:36:42;72.77;;;5.00;;
5221;SDS011;2630;52.036;8.514;2023-08-17T07:39:08;75.07;;;5.43;;
5221;SDS011;2630;52.036;8.514;2023-08-17T07:41:34;75.20;;;6.23;;
5221;SDS011;2630;52.036;8.514;2023-08-17T07:44:00;80.73;;;6.40;;
5221;SDS011;2630;52.036;8.514;2023-08-17T07:46:26;89.40;;;7.00;;
5221;SDS011;2630;52.036;8.514;2023-08-17T07:48:52;73.87;;;5.90;;
5221;SDS011;2630;52.036;8.514;2023-08-17T07:51:17;74.37;;;5.17;;
5221;SDS011;2630;52.036;8.514;2023-08-17T07:53:43;75.00;;;5.70;;
5221;SDS011;2630;52.036;8.514;2023-08-17T07:56:09;74.67;;;5.53;;
5221;SDS011;2630;52.036;8.514;2023-08-17T07:58:35;74.10;;;5.60;;
5221;SDS011;2630;52.036;8.514;2023-08-17T08:01:01;75.47;;;5.50;;
5221;SDS011;2630;52.036;8.514;2023-08-17T08:03:27;76.13;;;5.63;;
5221;SDS011;2630;52.036;8.514;2023-08-17T08:05:52;78.30;;;6.10;;
5221;SDS011;2630;52.036;8.514;2023-08-17T08:08:18;74.47;;;5.03;;
5221;SDS011;2630;52.036;8.514;2023-08-17T08:10:45;76.30;;;5.87;;
5221;SDS011;2630;52.036;8.514;2023-08-17T08:13:10;74.53;;;5.60;;
5221;SDS011;2630;52.036;8.514;2023-08-17T08:15:36;72.97;;;5.80;;
5221;SDS011;2630;52.036;8.514;2023-08-17T08:18:02;72.90;;;5.53;;
5221;SDS011;2630;52.036;8.514;2023-08-17T08:20:28;72.60;;;5.00;;
5221;SDS011;2630;52.036;8.514;2023-08-17T08:22:54;74.83;;;5.70;;
5221;SDS011;2630;52.036;8.514;2023-08-17T08:25:20;72.77;;;5.50;;
5221;SDS011;2630;52.036;8.514;2023-08-17T08:27:45;72.40;;;5.17;;
5221;SDS011;2630;52.036;8.514;2023-08-17T08:30:11;72.80;;;5.30;;
5221;SDS011;2630;52.036;8.514;2023-08-17T08:32:37;72.93;;;5.00;;
5221;SDS011;2630;52.036;8.514;2023-08-17T08:35:03;72.87;;;5.43;;
5221;SDS011;2630;52.036;8.514;2023-08-17T08:37:30;74.90;;;5.80;;
5221;SDS011;2630;52.036;8.514;2023-08-17T08:39:55;74.87;;;5.97;;
5221;SDS011;2630;52.036;8.514;2023-08-17T08:42:22;72.70;;;5.67;;
5221;SDS011;2630;52.036;8.514;2023-08-17T08:44:49;74.80;;;5.30;;
5221;SDS011;2630;52.036;8.514;2023-08-17T08:47:16;74.60;;;5.57;;
5221;SDS011;2630;52.036;8.514;2023-08-17T08:49:49;75.93;;;6.30;;
5221;SDS011;2630;52.036;8.514;2023-08-17T08:52:28;73.97;;;6.70;;
5221;SDS011;2630;52.036;8.514;2023-08-17T08:55:22;88.47;;;6.77;;
5221;SDS011;2630;52.036;8.514;2023-08-17T08:57:48;75.63;;;5.87;;
5221;SDS011;2630;52.036;8.514;2023-08-17T09:00:15;75.90;;;5.80;;
5221;SDS011;2630;52.036;8.514;2023-08-17T09:02:42;74.73;;;5.43;;
5221;SDS011;2630;52.036;8.514;2023-08-17T09:05:09;76.77;;;5.60;;
5221;SDS011;2630;52.036;8.514;2023-08-17T09:07:35;75.43;;;5.40;;
5221;SDS011;2630;52.036;8.514;2023-08-17T09:10:02;87.33;;;7.30;;
5221;SDS011;2630;52.036;8.514;2023-08-17T09:12:29;89.90;;;6.80;;
5221;SDS011;2630;52.036;8.514;2023-08-17T09:14:55;96.17;;;7.43;;
5221;SDS011;2630;52.036;8.514;2023-08-17T09:17:24;76.70;;;6.77;;
5221;SDS011;2630;52.036;8.514;2023-08-17T09:19:51;72.80;;;5.67;;
5221;SDS011;2630;52.036;8.514;2023-08-17T09:22:23;72.90;;;5.73;;
5221;SDS011;2630;52.036;8.514;2023-08-17T09:24:50;73.10;;;5.60;;
5221;SDS011;2630;52.036;8.514;2023-08-17T09:27:16;78.87;;;5.80;;
5221;SDS011;2630;52.036;8.514;2023-08-17T09:29:43;72.90;;;5.40;;
5221;SDS011;2630;52.036;8.514;2023-08-17T09:32:10;95.10;;;7.60;;
5221;SDS011;2630;52.036;8.514;2023-08-17T09:34:36;110.80;;;10.17;;
5221;SDS011;2630;52.036;8.514;2023-08-17T09:37:03;88.27;;;7.00;;
5221;SDS011;2630;52.036;8.514;2023-08-17T09:39:29;93.63;;;7.20;;
5221;SDS011;2630;52.036;8.514;2023-08-17T09:41:55;86.97;;;7.03;;
5221;SDS011;2630;52.036;8.514;2023-08-17T09:44:21;93.10;;;7.87;;
5221;SDS011;2630;52.036;8.514;2023-08-17T09:46:47;91.10;;;7.70;;
5221;SDS011;2630;52.036;8.514;2023-08-17T09:49:13;106.93;;;9.80;;
5221;SDS011;2630;52.036;8.514;2023-08-17T09:51:42;98.53;;;8.53;;
5221;SDS011;2630;52.036;8.514;2023-08-17T09:54:22;94.90;;;8.13;;
5221;SDS011;2630;52.036;8.514;2023-08-17T09:56:51;99.33;;;8.30;;
5221;SDS011;2630;52.036;8.514;2023-08-17T09:59:17;108.60;;;9.30;;
5221;SDS011;2630;52.036;8.514;2023-08-17T10:01:44;107.27;;;8.73;;
5221;SDS011;2630;52.036;8.514;2023-08-17T10:04:11;98.83;;;7.80;;
5221;SDS011;2630;52.036;8.514;2023-08-17T10:06:39;106.33;;;8.50;;
5221;SDS011;2630;52.036;8.514;2023-08-17T10:09:05;104.97;;;8.60;;
5221;SDS011;2630;52.036;8.514;2023-08-17T10:11:31;107.70;;;9.00;;
5221;SDS011;2630;52.036;8.514;2023-08-17T10:14:02;100.97;;;9.10;;
5221;SDS011;2630;52.036;8.514;2023-08-17T10:16:50;107.20;;;8.80;;
5221;SDS011;2630;52.036;8.514;2023-08-17T10:20:09;118.10;;;9.87;;
5221;SDS011;2630;52.036;8.514;2023-08-17T10:24:43;77.70;;;6.37;;
5221;SDS011;2630;52.036;8.514;2023-08-17T10:27:09;74.77;;;5.97;;
5221;SDS011;2630;52.036;8.514;2023-08-17T10:29:36;72.73;;;5.10;;
5221;SDS011;2630;52.036;8.514;2023-08-17T10:32:04;75.67;;;5.33;;
5221;SDS011;2630;52.036;8.514;2023-08-17T10:34:31;72.60;;;4.90;;
5221;SDS011;2630;52.036;8.514;2023-08-17T10:36:58;77.97;;;5.77;;
5221;SDS011;2630;52.036;8.514;2023-08-17T10:39:26;90.83;;;7.30;;
5221;SDS011;2630;52.036;8.514;2023-08-17T10:41:52;85.50;;;16.63;;
5221;SDS011;2630;52.036;8.514;2023-08-17T10:44:37;75.90;;;5.70;;
5221;SDS011;2630;52.036;8.514;2023-08-17T10:47:18;78.43;;;5.63;;
5221;SDS011;2630;52.036;8.514;2023-08-17T10:49:57;72.70;;;5.57;;
5221;SDS011;2630;52.036;8.514;2023-08-17T10:52:32;74.00;;;5.53;;
5221;SDS011;2630;52.036;8.514;2023-08-17T10:55:02;102.63;;;8.83;;
5221;SDS011;2630;52.036;8.514;2023-08-17T10:57:48;108.97;;;8.87;;
5221;SDS011;2630;52.036;8.514;2023-08-17T11:02:56;99.20;;;8.20;;
5221;SDS011;2630;52.036;8.514;2023-08-17T11:05:43;96.87;;;7.97;;
5221;SDS011;2630;52.036;8.514;2023-08-17T11:08:55;105.47;;;8.17;;
5221;SDS011;2630;52.036;8.514;2023-08-17T11:13:32;108.33;;;8.90;;
5221;SDS011;2630;52.036;8.514;2023-08-17T11:15:59;92.20;;;7.30;;
5221;SDS011;2630;52.036;8.514;2023-08-17T11:18:26;79.10;;;5.87;;
5221;SDS011;2630;52.036;8.514;2023-08-17T11:20:53;113.60;;;9.27;;
5221;SDS011;2630;52.036;8.514;2023-08-17T11:23:19;111.00;;;9.27;;
5221;SDS011;2630;52.036;8.514;2023-08-17T11:25:45;99.57;;;8.37;;
5221;SDS011;2630;52.036;8.514;2023-08-17T11:28:11;89.10;;;6.93;;
5221;SDS011;2630;52.036;8.514;2023-08-17T11:30:40;123.87;;;9.93;;
5221;SDS011;2630;52.036;8.514;2023-08-17T11:33:07;97.27;;;7.63;;
5221;SDS011;2630;52.036;8.514;2023-08-17T11:35:33;96.67;;;7.40;;
5221;SDS011;2630;52.036;8.514;2023-08-17T11:37:59;94.50;;;7.60;;
5221;SDS011;2630;52.036;8.514;2023-08-17T11:40:26;119.53;;;9.60;;
5221;SDS011;2630;52.036;8.514;2023-08-17T11:42:52;118.87;;;9.80;;
5221;SDS011;2630;52.036;8.514;2023-08-17T11:45:18;103.30;;;8.43;;
5221;SDS011;2630;52.036;8.514;2023-08-17T11:47:46;101.73;;;8.17;;
5221;SDS011;2630;52.036;8.514;2023-08-17T11:50:13;105.77;;;8.73;;
5221;SDS011;2630;52.036;8.514;2023-08-17T11:52:39;104.53;;;8.13;;
5221;SDS011;2630;52.036;8.514;2023-08-17T11:55:05;111.40;;;8.97;;
5221;SDS011;2630;52.036;8.514;2023-08-17T11:57:32;124.80;;;11.10;;
5221;SDS011;2630;52.036;8.514;2023-08-17T11:59:58;116.73;;;9.73;;
5221;SDS011;2630;52.036;8.514;2023-08-17T12:02:25;101.07;;;8.20;;
5221;SDS011;2630;52.036;8.514;2023-08-17T12:04:52;108.33;;;8.50;;
5221;SDS011;2630;52.036;8.514;2023-08-17T12:07:18;100.50;;;7.80;;
5221;SDS011;2630;52.036;8.514;2023-08-17T12:09:47;91.93;;;7.00;;
5221;SDS011;2630;52.036;8.514;2023-08-17T12:12:17;109.20;;;8.73;;
5221;SDS011;2630;52.036;8.514;2023-08-17T12:14:43;95.03;;;7.90;;
5221;SDS011;2630;52.036;8.514;2023-08-17T12:17:15;111.97;;;9.17;;
5221;SDS011;2630;52.036;8.514;2023-08-17T12:19:44;124.43;;;10.80;;
5221;SDS011;2630;52.036;8.514;2023-08-17T12:22:14;112.17;;;9.70;;
5221;SDS011;2630;52.036;8.514;2023-08-17T12:24:40;109.90;;;8.90;;
5221;SDS011;2630;52.036;8.514;2023-08-17T12:27:06;112.13;;;8.63;;
5221;SDS011;2630;52.036;8.514;2023-08-17T12:29:32;113.60;;;9.03;;
5221;SDS011;2630;52.036;8.514;2023-08-17T12:31:58;99.57;;;8.07;;
5221;SDS011;2630;52.036;8.514;2023-08-17T12:34:24;125.03;;;10.40;;
5221;SDS011;2630;52.036;8.514;2023-08-17T12:36:50;132.20;;;11.90;;
5221;SDS011;2630;52.036;8.514;2023-08-17T12:39:16;136.53;;;11.10;;
5221;SDS011;2630;52.036;8.514;2023-08-17T12:41:42;108.17;;;9.17;;
5221;SDS011;2630;52.036;8.514;2023-08-17T12:44:09;118.67;;;9.30;;
5221;SDS011;2630;52.036;8.514;2023-08-17T12:46:38;100.60;;;8.67;;
5221;SDS011;2630;52.036;8.514;2023-08-17T12:49:04;75.87;;;6.00;;
5221;SDS011;2630;52.036;8.514;2023-08-17T12:51:30;108.47;;;8.60;;
5221;SDS011;2630;52.036;8.514;2023-08-17T12:53:56;104.63;;;8.60;;
5221;SDS011;2630;52.036;8.514;2023-08-17T12:56:22;104.63;;;8.40;;
5221;SDS011;2630;52.036;8.514;2023-08-17T12:58:48;146.53;;;10.43;;
5221;SDS011;2630;52.036;8.514;2023-08-17T13:01:14;104.63;;;8.63;;
5221;SDS011;2630;52.036;8.514;2023-08-17T13:03:40;109.17;;;8.77;;
5221;SDS011;2630;52.036;8.514;2023-08-17T13:06:05;98.27;;;8.03;;
5221;SDS011;2630;52.036;8.514;2023-08-17T13:08:31;97.63;;;7.50;;
5221;SDS011;2630;52.036;8.514;2023-08-17T13:10:57;123.97;;;9.63;;
5221;SDS011;2630;52.036;8.514;2023-08-17T13:13:23;119.53;;;9.70;;
5221;SDS011;2630;52.036;8.514;2023-08-17T13:15:49;75.67;;;5.37;;
5221;SDS011;2630;52.036;8.514;2023-08-17T13:18:14;106.43;;;8.83;;
5221;SDS011;2630;52.036;8.514;2023-08-17T13:20:40;109.50;;;8.97;;
5221;SDS011;2630;52.036;8.514;2023-08-17T13:23:06;100.60;;;7.97;;
5221;SDS011;2630;52.036;8.514;2023-08-17T13:25:32;102.60;;;8.10;;
5221;SDS011;2630;52.036;8.514;2023-08-17T13:27:58;102.30;;;8.37;;
5221;SDS011;2630;52.036;8.514;2023-08-17T13:30:24;103.70;;;8.43;;
5221;SDS011;2630;52.036;8.514;2023-08-17T13:32:50;92.13;;;6.33;;
5221;SDS011;2630;52.036;8.514;2023-08-17T13:35:16;99.33;;;8.10;;
5221;SDS011;2630;52.036;8.514;2023-08-17T13:37:42;109.37;;;9.13;;
5221;SDS011;2630;52.036;8.514;2023-08-17T13:40:08;100.77;;;8.00;;
5221;SDS011;2630;52.036;8.514;2023-08-17T13:42:35;100.37;;;8.13;;
5221;SDS011;2630;52.036;8.514;2023-08-17T13:45:01;101.80;;;7.60;;
5221;SDS011;2630;52.036;8.514;2023-08-17T13:47:28;98.90;;;8.67;;
5221;SDS011;2630;52.036;8.514;2023-08-17T13:49:54;106.73;;;8.27;;
5221;SDS011;2630;52.036;8.514;2023-08-17T13:52:21;116.73;;;9.67;;
5221;SDS011;2630;52.036;8.514;2023-08-17T13:54:47;123.43;;;9.50;;
5221;SDS011;2630;52.036;8.514;2023-08-17T13:57:14;175.60;;;10.87;;
5221;SDS011;2630;52.036;8.514;2023-08-17T13:59:40;118.27;;;9.90;;
5221;SDS011;2630;52.036;8.514;2023-08-17T14:02:07;111.30;;;9.13;;
5221;SDS011;2630;52.036;8.514;2023-08-17T14:04:33;105.17;;;8.10;;
5221;SDS011;2630;52.036;8.514;2023-08-17T14:06:59;101.57;;;8.07;;
5221;SDS011;2630;52.036;8.514;2023-08-17T14:09:25;115.53;;;9.20;;
5221;SDS011;2630;52.036;8.514;2023-08-17T14:11:51;132.70;;;10.60;;
5221;SDS011;2630;52.036;8.514;2023-08-17T14:14:17;126.27;;;10.50;;
5221;SDS011;2630;52.036;8.514;2023-08-17T14:16:43;72.80;;;5.03;;
5221;SDS011;2630;52.036;8.514;2023-08-17T14:19:08;97.40;;;7.80;;
5221;SDS011;2630;52.036;8.514;2023-08-17T14:21:34;82.90;;;5.77;;
5221;SDS011;2630;52.036;8.514;2023-08-17T14:24:00;120.33;;;10.20;;
5221;SDS011;2630;52.036;8.514;2023-08-17T14:26:26;107.20;;;9.37;;
5221;SDS011;2630;52.036;8.514;2023-08-17T14:28:52;112.07;;;9.40;;
5221;SDS011;2630;52.036;8.514;2023-08-17T14:31:18;114.07;;;9.00;;
5221;SDS011;2630;52.036;8.514;2023-08-17T14:33:45;115.97;;;9.73;;
5221;SDS011;2630;52.036;8.514;2023-08-17T14:36:12;108.03;;;8.23;;
5221;SDS011;2630;52.036;8.514;2023-08-17T14:38:38;107.93;;;8.70;;
5221;SDS011;2630;52.036;8.514;2023-08-17T14:41:04;105.60;;;8.47;;
5221;SDS011;2630;52.036;8.514;2023-08-17T14:43:32;76.83;;;5.70;;
5221;SDS011;2630;52.036;8.514;2023-08-17T14:45:57;106.07;;;9.40;;
5221;SDS011;2630;52.036;8.514;2023-08-17T14:48:23;111.90;;;8.97;;
5221;SDS011;2630;52.036;8.514;2023-08-17T14:50:49;98.03;;;7.70;;
5221;SDS011;2630;52.036;8.514;2023-08-17T14:53:15;109.97;;;8.40;;
5221;SDS011;2630;52.036;8.514;2023-08-17T14:55:41;106.33;;;8.50;;
5221;SDS011;2630;52.036;8.514;2023-08-17T14:58:07;117.07;;;9.30;;
5221;SDS011;2630;52.036;8.514;2023-08-17T15:00:33;96.70;;;7.37;;
5221;SDS011;2630;52.036;8.514;2023-08-17T15:02:59;102.30;;;8.40;;
5221;SDS011;2630;52.036;8.514;2023-08-17T15:05:26;90.93;;;7.23;;
5221;SDS011;2630;52.036;8.514;2023-08-17T15:07:51;114.43;;;8.93;;